^^
Station Historical Data
 
Daily Summary for October 01, 2016 Units:  English    Metric   Both
« Previous Day
Next Day »
Daily Weekly Monthly Yearly Custom
  Current: High: Low: Average:
Temperature: 61.0 °F 62.0 °F 56.5 °F 59.3 °F
Dew Point: 60.1 °F 60.2 °F 55.4 °F 57.8 °F
Humidity: 97% 97% 90% 95%
Wind Speed: 2.3mph 3.5mph 0.0mph 0.9mph
Wind Gust: 2.3mph 3.5mph - -
WindWNW - - SSE
Pressure: 30.03 in 30.08 in 30.03 in -
Precipitation: 0.22 in      
Historical Graphs
 
 
Tabular Data for October 01, 2016
Time Temperature Dew Point Pressure Wind Wind Speed Wind Gust Humidity Rainfall Rate (Hourly) solar Conditions
00:02 62.0 °F 59.3 °F 30.08 in NNE 1.2 mph 1.2 mph 91% 0.00 in WeatherDisplay:10.37 W/m2 RA
00:07 62.0 °F 59.3 °F 30.08 in NNE 2.3 mph 2.3 mph 91% 0.00 in WeatherDisplay:10.37 W/m2 RA
00:12 62.0 °F 59.3 °F 30.08 in NNE 2.3 mph 2.3 mph 91% 0.00 in WeatherDisplay:10.37 W/m2 OVC
00:17 62.0 °F 59.3 °F 30.08 in NNE 3.5 mph 3.5 mph 91% 0.00 in WeatherDisplay:10.37 W/m2 OVC
00:22 62.0 °F 59.3 °F 30.08 in NNE 1.2 mph   91% 0.00 in WeatherDisplay:10.37 W/m2 OVC
00:27 62.0 °F 59.3 °F 30.08 in NE 2.3 mph 2.3 mph 91% 0.00 in WeatherDisplay:10.37 W/m2 OVC
00:32 62.0 °F 59.0 °F 30.08 in NE 1.2 mph   90% 0.00 in WeatherDisplay:10.37 W/m2 OVC
00:37 61.9 °F 58.9 °F 30.08 in NE 1.2 mph 1.2 mph 90% 0.00 in WeatherDisplay:10.37 W/m2 OVC
00:42 61.9 °F 58.9 °F 30.08 in Calm     90% 0.00 in WeatherDisplay:10.37 W/m2 OVC
00:47 61.9 °F 58.9 °F 30.08 in NE 1.2 mph   90% 0.00 in WeatherDisplay:10.37 W/m2 OVC
00:52 61.9 °F 59.2 °F 30.08 in Calm     91% 0.00 in WeatherDisplay:10.37 W/m2 OVC
00:57 61.9 °F 59.2 °F 30.08 in Calm     91% 0.00 in WeatherDisplay:10.37 W/m2 OVC
01:02 61.8 °F 59.1 °F 30.08 in NE 2.3 mph 2.3 mph 91% 0.00 in WeatherDisplay:10.37 W/m2 OVC
01:07 61.8 °F 59.1 °F 30.07 in Calm     91% 0.00 in WeatherDisplay:10.37 W/m2 OVC
01:12 61.8 °F 59.1 °F 30.07 in NE 1.0 mph   91% 0.00 in WeatherDisplay:10.37 W/m2 OVC
01:17 61.8 °F 59.1 °F 30.07 in Calm     91% 0.00 in WeatherDisplay:10.37 W/m2 OVC
01:22 61.8 °F 59.1 °F 30.07 in NE 1.2 mph   91% 0.00 in WeatherDisplay:10.37 W/m2 OVC
01:27 61.8 °F 59.1 °F 30.08 in NE 1.2 mph 1.2 mph 91% 0.00 in WeatherDisplay:10.37 W/m2 OVC
01:32 61.7 °F 59.0 °F 30.08 in NE 2.3 mph 2.3 mph 91% 0.00 in WeatherDisplay:10.37 W/m2 OVC
01:37 61.7 °F 59.4 °F 30.08 in NE 1.2 mph 1.2 mph 92% 0.00 in WeatherDisplay:10.37 W/m2 OVC
01:42 61.6 °F 58.9 °F 30.08 in Calm     91% 0.00 in WeatherDisplay:10.37 W/m2 OVC
01:47 61.6 °F 59.3 °F 30.08 in NE 1.0 mph 1.0 mph 92% 0.00 in WeatherDisplay:10.37 W/m2 OVC
01:52 61.6 °F 59.3 °F 30.08 in ESE 2.3 mph 2.3 mph 92% 0.00 in WeatherDisplay:10.37 W/m2 OVC
01:57 61.6 °F 59.3 °F 30.08 in ESE 2.0 mph 2.0 mph 92% 0.00 in WeatherDisplay:10.37 W/m2 OVC
02:02 61.5 °F 58.8 °F 30.08 in NE 1.2 mph 1.2 mph 91% 0.00 in WeatherDisplay:10.37 W/m2 OVC
02:07 61.5 °F 58.8 °F 30.08 in East 2.3 mph 2.3 mph 91% 0.00 in WeatherDisplay:10.37 W/m2 OVC
02:12 61.5 °F 58.5 °F 30.07 in East 2.3 mph 2.3 mph 90% 0.00 in WeatherDisplay:10.37 W/m2 OVC
02:17 61.4 °F 58.7 °F 30.07 in NE 1.2 mph 1.2 mph 91% 0.00 in WeatherDisplay:10.37 W/m2 OVC
02:22 61.4 °F 58.7 °F 30.07 in Calm   0.5 mph 91% 0.00 in WeatherDisplay:10.37 W/m2 OVC
02:27 61.4 °F 58.4 °F 30.07 in NE 1.2 mph   90% 0.00 in WeatherDisplay:10.37 W/m2 OVC
02:32 61.3 °F 58.7 °F 30.07 in Calm   0.3 mph 91% 0.00 in WeatherDisplay:10.37 W/m2 OVC
02:37 61.2 °F 58.2 °F 30.07 in NE 1.2 mph 1.2 mph 90% 0.00 in WeatherDisplay:10.37 W/m2 OVC
02:42 61.2 °F 58.6 °F 30.07 in NE 2.3 mph 2.3 mph 91% 0.00 in WeatherDisplay:10.37 W/m2 OVC
02:47 61.0 °F 58.4 °F 30.07 in NE 2.3 mph 2.3 mph 91% 0.00 in WeatherDisplay:10.37 W/m2 OVC
02:53 60.9 °F 58.3 °F 30.07 in NE 2.3 mph 2.3 mph 91% 0.00 in WeatherDisplay:10.37 W/m2 OVC
02:58 60.7 °F 58.1 °F 30.07 in NE 1.2 mph   91% 0.00 in WeatherDisplay:10.37 W/m2 OVC
03:03 60.5 °F 57.9 °F 30.07 in NE 1.2 mph 1.2 mph 91% 0.00 in WeatherDisplay:10.37 W/m2 OVC
03:08 60.2 °F 57.9 °F 30.07 in NE 1.2 mph 1.2 mph 92% 0.00 in WeatherDisplay:10.37 W/m2 OVC
03:13 60.0 °F 57.7 °F 30.07 in Calm     92% 0.00 in WeatherDisplay:10.37 W/m2 SCT
03:18 59.8 °F 57.5 °F 30.07 in Calm     92% 0.00 in WeatherDisplay:10.37 W/m2 SCT
03:23 59.6 °F 57.3 °F 30.07 in Calm     92% 0.00 in WeatherDisplay:10.37 W/m2 SCT
03:27 59.4 °F 57.4 °F 30.07 in NE 1.2 mph   93% 0.00 in WeatherDisplay:10.37 W/m2 SCT
03:33 59.3 °F 57.3 °F 30.07 in Calm     93% 0.00 in WeatherDisplay:10.37 W/m2 CLR
03:38 59.1 °F 57.1 °F 30.06 in Calm     93% 0.00 in WeatherDisplay:10.37 W/m2 CLR
03:48 58.8 °F 56.8 °F 30.06 in Calm     93% 0.00 in WeatherDisplay:10.37 W/m2 CLR
03:53 58.6 °F 56.6 °F 30.06 in Calm     93% 0.00 in WeatherDisplay:10.37 W/m2 SCT
03:58 58.4 °F 56.4 °F 30.06 in Calm     93% 0.00 in WeatherDisplay:10.37 W/m2 SCT
04:03 58.2 °F 56.5 °F 30.07 in Calm     94% 0.00 in WeatherDisplay:10.37 W/m2 SCT
04:08 58.1 °F 56.4 °F 30.07 in NE 2.3 mph 2.3 mph 94% 0.00 in WeatherDisplay:10.37 W/m2 SCT
04:13 57.9 °F 56.2 °F 30.06 in Calm     94% 0.00 in WeatherDisplay:10.37 W/m2 CLR
04:18 57.8 °F 56.1 °F 30.06 in Calm     94% 0.00 in WeatherDisplay:10.37 W/m2 CLR
04:23 57.7 °F 56.3 °F 30.06 in Calm     95% 0.00 in WeatherDisplay:10.37 W/m2 CLR
04:28 57.6 °F 56.2 °F 30.06 in Calm     95% 0.00 in WeatherDisplay:10.37 W/m2 CLR
04:33 57.5 °F 56.1 °F 30.06 in Calm     95% 0.00 in WeatherDisplay:10.37 W/m2 CLR
04:38 57.3 °F 55.9 °F 30.06 in Calm     95% 0.00 in WeatherDisplay:10.37 W/m2 CLR
04:48 57.1 °F 55.7 °F 30.06 in Calm     95% 0.00 in WeatherDisplay:10.37 W/m2 CLR
04:53 57.0 °F 55.6 °F 30.06 in Calm     95% 0.00 in WeatherDisplay:10.37 W/m2 CLR
04:58 56.9 °F 55.5 °F 30.05 in Calm     95% 0.00 in WeatherDisplay:10.37 W/m2 CLR
05:03 56.9 °F 55.5 °F 30.05 in Calm     95% 0.00 in WeatherDisplay:10.37 W/m2 CLR
05:08 56.8 °F 55.4 °F 30.05 in Calm     95% 0.00 in WeatherDisplay:10.37 W/m2 CLR
05:13 56.8 °F 55.7 °F 30.05 in NE 2.0 mph 2.0 mph 96% 0.00 in WeatherDisplay:10.37 W/m2 CLR
05:18 56.8 °F 55.7 °F 30.05 in Calm     96% 0.00 in WeatherDisplay:10.37 W/m2 CLR
05:23 56.8 °F 55.7 °F 30.05 in Calm     96% 0.00 in WeatherDisplay:10.37 W/m2 CLR
05:28 56.7 °F 55.6 °F 30.06 in Calm     96% 0.00 in WeatherDisplay:10.37 W/m2 CLR
05:33 56.7 °F 55.6 °F 30.06 in Calm     96% 0.00 in WeatherDisplay:10.37 W/m2 CLR
05:38 56.6 °F 55.5 °F 30.06 in Calm     96% 0.00 in WeatherDisplay:10.37 W/m2 CLR
05:43 56.5 °F 55.4 °F 30.07 in Calm     96% 0.00 in WeatherDisplay:10.37 W/m2 CLR
05:48 56.5 °F 55.4 °F 30.07 in Calm     96% 0.00 in WeatherDisplay:10.37 W/m2 CLR
05:53 56.5 °F 55.4 °F 30.07 in Calm     96% 0.00 in WeatherDisplay:10.37 W/m2 CLR
05:58 56.6 °F 55.5 °F 30.06 in Calm     96% 0.00 in WeatherDisplay:10.37 W/m2 CLR
06:03 56.6 °F 55.5 °F 30.06 in Calm     96% 0.00 in WeatherDisplay:10.37 W/m2 CLR
06:08 56.6 °F 55.5 °F 30.06 in Calm     96% 0.00 in WeatherDisplay:10.37 W/m2 CLR
06:13 56.5 °F 55.4 °F 30.06 in Calm     96% 0.00 in WeatherDisplay:10.37 W/m2 BKN
06:18 56.5 °F 55.4 °F 30.06 in Calm     96% 0.00 in WeatherDisplay:10.37 W/m2 BKN
06:23 56.5 °F 55.4 °F 30.06 in Calm     96% 0.00 in WeatherDisplay:10.37 W/m2 BKN
06:28 56.5 °F 55.4 °F 30.06 in Calm     96% 0.00 in WeatherDisplay:10.37 W/m2 BKN
06:33 56.5 °F 55.4 °F 30.06 in Calm     96% 0.00 in WeatherDisplay:10.37 W/m2 OVC
06:38 56.5 °F 55.7 °F 30.06 in NE 1.2 mph 1.2 mph 97% 0.00 in WeatherDisplay:10.37 W/m2 OVC
06:43 56.6 °F 55.8 °F 30.06 in Calm     97% 0.00 in WeatherDisplay:10.37 W/m2 OVC
06:48 56.6 °F 55.8 °F 30.06 in Calm     97% 0.00 in WeatherDisplay:10.37 W/m2 OVC
06:58 56.6 °F 55.8 °F 30.06 in Calm     97% 0.00 in WeatherDisplay:10.37 W/m2 BKN
07:03 56.7 °F 55.9 °F 30.06 in Calm     97% 0.00 in WeatherDisplay:10.37 W/m2 BKN
07:08 56.8 °F 56.0 °F 30.06 in Calm     97% 0.00 in WeatherDisplay:10.37 W/m2 BKN
07:13 56.8 °F 56.0 °F 30.06 in Calm     97% 0.00 in WeatherDisplay:10.37 W/m2 BKN
07:18 56.9 °F 56.1 °F 30.06 in Calm     97% 0.00 in WeatherDisplay:10.37 W/m2 BKN
07:23 57.0 °F 56.2 °F 30.05 in Calm     97% 0.00 in WeatherDisplay:10.37 W/m2 BKN
07:28 57.1 °F 56.3 °F 30.05 in Calm     97% 0.00 in WeatherDisplay:10.37 W/m2 BKN
07:33 57.2 °F 56.4 °F 30.05 in NE 1.2 mph 1.2 mph 97% 0.00 in WeatherDisplay:10.37 W/m2 OVC
07:38 57.3 °F 56.5 °F 30.05 in NE 1.2 mph   97% 0.00 in WeatherDisplay:10.37 W/m2 OVC
07:43 57.4 °F 56.6 °F 30.05 in NE 1.2 mph 1.2 mph 97% 0.00 in WeatherDisplay:10.37 W/m2 OVC
07:48 57.5 °F 56.7 °F 30.05 in NNW 3.5 mph 3.5 mph 97% 0.00 in WeatherDisplay:10.37 W/m2 OVC
07:53 57.6 °F 56.8 °F 30.06 in NNW 1.2 mph 1.2 mph 97% 0.00 in WeatherDisplay:10.37 W/m2 BKN
07:58 57.7 °F 56.9 °F 30.06 in NNW 3.5 mph 3.5 mph 97% 0.00 in WeatherDisplay:10.37 W/m2 BKN
08:03 57.7 °F 56.9 °F 30.05 in NNW 1.2 mph 1.2 mph 97% 0.00 in WeatherDisplay:10.37 W/m2 BKN
08:08 57.8 °F 57.0 °F 30.05 in NNW 1.2 mph 1.2 mph 97% 0.00 in WeatherDisplay:10.37 W/m2 BKN
08:13 57.9 °F 57.1 °F 30.05 in Calm     97% 0.00 in WeatherDisplay:10.37 W/m2 SCT
08:18 58.0 °F 57.2 °F 30.05 in Calm     97% 0.00 in WeatherDisplay:10.37 W/m2 SCT
08:23 58.2 °F 57.4 °F 30.05 in Calm     97% 0.00 in WeatherDisplay:10.37 W/m2 SCT
08:28 58.3 °F 57.5 °F 30.05 in Calm     97% 0.00 in WeatherDisplay:10.37 W/m2 SCT
08:33 58.4 °F 57.6 °F 30.05 in Calm     97% 0.00 in WeatherDisplay:10.37 W/m2 BKN
08:38 58.5 °F 57.7 °F 30.05 in Calm     97% 0.00 in WeatherDisplay:10.37 W/m2 BKN
08:43 58.7 °F 57.9 °F 30.05 in Calm     97% 0.00 in WeatherDisplay:10.37 W/m2 BKN
08:48 58.7 °F 57.6 °F 30.05 in Calm   0.1 mph 96% 0.00 in WeatherDisplay:10.37 W/m2 BKN
08:53 58.9 °F 57.8 °F 30.06 in NNW 1.2 mph   96% 0.00 in WeatherDisplay:10.37 W/m2 BKN
08:58 58.9 °F 57.8 °F 30.06 in NNW 2.3 mph 2.3 mph 96% 0.00 in WeatherDisplay:10.37 W/m2 BKN
09:03 59.0 °F 57.9 °F 30.06 in North 1.2 mph 1.2 mph 96% 0.00 in WeatherDisplay:10.37 W/m2 BKN
09:08 59.1 °F 58.0 °F 30.06 in Calm     96% 0.00 in WeatherDisplay:10.37 W/m2 BKN
09:13 59.1 °F 58.0 °F 30.06 in Calm     96% 0.01 in WeatherDisplay:10.37 W/m2 RA
09:18 59.1 °F 58.0 °F 30.06 in Calm     96% 0.02 in WeatherDisplay:10.37 W/m2 RA
09:23 59.2 °F 58.1 °F 30.06 in Calm     96% 0.03 in WeatherDisplay:10.37 W/m2 RA
09:28 59.2 °F 58.1 °F 30.06 in Calm     96% 0.03 in WeatherDisplay:10.37 W/m2 RA
09:33 59.2 °F 58.1 °F 30.06 in Calm     96% 0.04 in WeatherDisplay:10.37 W/m2 RA
09:38 59.2 °F 58.1 °F 30.07 in North 1.2 mph 1.2 mph 96% 0.04 in WeatherDisplay:10.37 W/m2 RA
09:43 59.2 °F 58.1 °F 30.07 in Calm     96% 0.04 in WeatherDisplay:10.37 W/m2 OVC
09:48 59.3 °F 58.2 °F 30.07 in NNE 2.3 mph 2.3 mph 96% 0.06 in WeatherDisplay:10.37 W/m2 RA
09:53 59.2 °F 58.1 °F 30.07 in NE 2.3 mph 2.3 mph 96% 0.09 in WeatherDisplay:10.37 W/m2 +RA
09:58 59.1 °F 58.0 °F 30.06 in Calm     96% 0.10 in WeatherDisplay:10.37 W/m2 +RA
10:03 58.9 °F 57.8 °F 30.06 in Calm     96% 0.11 in WeatherDisplay:10.37 W/m2 +RA
10:08 58.9 °F 57.8 °F 30.06 in Calm     96% 0.12 in WeatherDisplay:10.37 W/m2 +RA
10:13 58.9 °F 57.8 °F 30.06 in Calm     96% 0.11 in WeatherDisplay:10.37 W/m2 RA
10:18 58.9 °F 57.8 °F 30.06 in Calm     96% 0.10 in WeatherDisplay:10.37 W/m2 OVC
10:23 59.0 °F 57.9 °F 30.06 in Calm     96% 0.09 in WeatherDisplay:10.37 W/m2 OVC
10:28 59.2 °F 58.1 °F 30.06 in NE 1.2 mph 1.2 mph 96% 0.09 in WeatherDisplay:10.37 W/m2 OVC
10:33 59.5 °F 58.6 °F 30.06 in Calm   0.2 mph 97% 0.08 in WeatherDisplay:10.37 W/m2 -RA
10:38 59.5 °F 58.4 °F 30.06 in NNE 2.3 mph 2.3 mph 96% 0.08 in WeatherDisplay:10.37 W/m2 -RA
10:43 59.5 °F 58.4 °F 30.06 in NNE 1.2 mph   96% 0.08 in WeatherDisplay:10.37 W/m2 -RA
10:48 59.6 °F 58.5 °F 30.06 in Calm     96% 0.07 in WeatherDisplay:10.37 W/m2 -RA
10:58 59.7 °F 58.6 °F 30.06 in Calm     96% 0.03 in WeatherDisplay:10.37 W/m2 OVC
11:03 59.7 °F 58.3 °F 30.06 in NNE 2.3 mph 2.3 mph 95% 0.02 in WeatherDisplay:10.37 W/m2 OVC
11:08 59.8 °F 58.7 °F 30.06 in North 3.5 mph 3.5 mph 96% 0.01 in WeatherDisplay:10.37 W/m2 OVC
11:14 59.8 °F 58.7 °F 30.06 in NNW 2.3 mph 2.3 mph 96% 0.01 in WeatherDisplay:10.37 W/m2 OVC
11:19 59.8 °F 58.7 °F 30.06 in NNW 1.2 mph 1.2 mph 96% 0.01 in WeatherDisplay:10.37 W/m2 OVC
11:29 59.7 °F 58.6 °F 30.06 in Calm     96% 0.02 in WeatherDisplay:10.37 W/m2 RA
11:34 59.8 °F 58.7 °F 30.06 in NNW 1.2 mph   96% 0.02 in WeatherDisplay:10.37 W/m2 RA
11:39 59.8 °F 58.7 °F 30.06 in Calm     96% 0.02 in WeatherDisplay:10.37 W/m2 OVC
11:44 59.8 °F 58.7 °F 30.06 in Calm     96% 0.03 in WeatherDisplay:10.37 W/m2 RA
11:49 59.8 °F 58.7 °F 30.05 in NNW 1.2 mph 1.2 mph 96% 0.02 in WeatherDisplay:10.37 W/m2 RA
11:54 59.8 °F 58.7 °F 30.05 in NNW 1.2 mph 1.2 mph 96% 0.03 in WeatherDisplay:10.37 W/m2 RA
11:59 59.9 °F 58.8 °F 30.05 in Calm     96% 0.04 in WeatherDisplay:10.37 W/m2 RA
12:04 60.0 °F 58.9 °F 30.04 in NNW 1.2 mph 1.2 mph 96% 0.05 in WeatherDisplay:10.37 W/m2 RA
12:09 60.1 °F 59.2 °F 30.04 in NNW 1.2 mph 1.2 mph 97% 0.05 in WeatherDisplay:10.37 W/m2 RA
12:14 60.2 °F 59.3 °F 30.05 in NNW 1.2 mph   97% 0.05 in WeatherDisplay:10.37 W/m2 +RA
12:19 60.3 °F 59.4 °F 30.04 in NNW 2.3 mph 2.3 mph 97% 0.06 in WeatherDisplay:10.37 W/m2 +RA
12:24 60.3 °F 59.4 °F 30.05 in Calm     97% 0.06 in WeatherDisplay:10.37 W/m2 +RA
12:29 60.3 °F 59.4 °F 30.05 in NNW 2.3 mph 2.3 mph 97% 0.06 in WeatherDisplay:10.37 W/m2 +RA
12:34 60.3 °F 59.4 °F 30.05 in NNW 2.3 mph 2.3 mph 97% 0.06 in WeatherDisplay:10.37 W/m2 RA
12:39 60.4 °F 59.5 °F 30.05 in NNW 3.0 mph 3.0 mph 97% 0.06 in WeatherDisplay:10.37 W/m2 OVC
12:44 60.4 °F 59.5 °F 30.05 in NNW 2.3 mph 2.3 mph 97% 0.05 in WeatherDisplay:10.37 W/m2 OVC
12:49 60.5 °F 59.6 °F 30.05 in NNW 1.2 mph 1.2 mph 97% 0.05 in WeatherDisplay:10.37 W/m2 OVC
12:54 60.5 °F 59.6 °F 30.05 in NNW 2.3 mph 2.3 mph 97% 0.05 in WeatherDisplay:10.37 W/m2 -RA
12:59 60.5 °F 59.6 °F 30.04 in NW 3.5 mph 3.5 mph 97% 0.05 in WeatherDisplay:10.37 W/m2 -RA
13:04 60.5 °F 59.6 °F 30.04 in NNW 1.2 mph 1.2 mph 97% 0.04 in WeatherDisplay:10.37 W/m2 -RA
13:09 60.5 °F 59.6 °F 30.04 in NNW 2.3 mph 2.3 mph 97% 0.04 in WeatherDisplay:10.37 W/m2 -RA
13:14 60.6 °F 59.7 °F 30.04 in NW 2.3 mph 2.3 mph 97% 0.04 in WeatherDisplay:10.37 W/m2 OVC
13:19 60.7 °F 59.8 °F 30.04 in NW 1.2 mph 1.2 mph 97% 0.03 in WeatherDisplay:10.37 W/m2 OVC
13:24 60.8 °F 59.9 °F 30.03 in NW 1.2 mph 1.2 mph 97% 0.03 in WeatherDisplay:10.37 W/m2 OVC
13:29 61.0 °F 60.1 °F 30.03 in WNW 2.3 mph 2.3 mph 97% 0.02 in WeatherDisplay:10.37 W/m2 OVC
13:34 61.1 °F 60.2 °F 30.03 in WNW 3.5 mph 3.5 mph 97% 0.02 in WeatherDisplay:10.37 W/m2 OVC
13:39 60.9 °F 60.0 °F 30.03 in WNW 2.3 mph 2.3 mph 97% 0.02 in WeatherDisplay:10.37 W/m2 OVC
13:49 61.0 °F 60.1 °F 30.03 in WNW 2.3 mph 2.3 mph 97% 0.02 in WeatherDisplay:10.37 W/m2 OVC
jolietwx - Weather
Compliments of Weather Underground - 1.25 mb